Blowing Sand Mountains, Nevada Weather observations

Data are for observation ending at time listed.
 Day   Time    Ave.   Ave.  Ave.  Vector   Max.   Stn.    Total    Solar   Ave.  
  of    of     Air    Rel.  Wind   Wind    Wind   Baro.  Precip.   Rad.    Soil  
Year   Day     Temp.  Hum.  Speed  Dir.    Gust   Pres.                    Temp. 
2014   (PST)    F      %     mph   deg.    mph     mb.     in.     W/m2     F   
------------------------------------------------------------------------------
 211    0:30   73.6    29    2.5    70      3.8    885.0     0.00       0    999.0
 211    0:40   72.4    29    0.6   109      2.8    885.0     0.00       0    999.0
 211    0:50   70.7    30    1.1   163      2.8    884.9     0.00       0    999.0
 211    1:00   69.4    30    0.7   166      2.3    884.9     0.00       0    999.0
 211    1:10   68.1    31    2.3   189      5.7    884.9     0.00       0    999.0
 211    1:20   67.9    32    4.3   162      7.2    884.9     0.00       0    999.0
 211    1:30   68.0    31    6.3   159      8.7    885.0     0.00       0    999.0
 211    1:40   68.7    32    4.2   153      5.9    885.1     0.00       0    999.0
 211    1:50   68.5    32    3.2   138      4.7    885.1     0.00       0    999.0
 211    2:00   68.6    32    3.1    95      4.6    885.1     0.00       0    999.0
 211    2:10   68.0    32    1.1    50      3.3    885.1     0.00       0    999.0
 211    2:20   67.4    33    0.0     0      0.0    884.9     0.00       0    999.0
 211    2:30   66.9    33    0.0   179      0.4    885.0     0.00       0    999.0
 211    2:40   65.9    35    0.8   210      2.8    884.9     0.00       0    999.0
 211    2:50   64.6    34    2.7   178      4.3    884.9     0.00       0    999.0
 211    3:00   63.5    35    1.6   224      5.6    885.0     0.00       0    999.0
 211    3:10   63.7    35    2.2   155      3.1    885.1     0.00       0    999.0
 211    3:20   63.3    36    2.8   136      4.4    885.0     0.00       0    999.0
 211    3:30   64.1    36    3.4   112      4.7    885.0     0.00       0    999.0
 211    3:40   64.5    37    3.6   110      5.1    885.0     0.00       0    999.0
 211    3:50   63.9    38    1.5    71      3.7    885.1     0.00       0    999.0
 211    4:00   63.3    39    0.0     0      0.0    885.1     0.00       0    999.0
 211    4:10   64.0    39    0.0     0      0.0    885.1     0.00       0    999.0
 211    4:20   63.7    39    1.3   133      3.9    885.1     0.00       0    999.0
 211    4:30   62.4    40    3.0   164      4.2    885.2     0.00       0    999.0
 211    4:40   60.3    39    1.7   267      3.6    885.4     0.00       0    999.0
 211    4:50   59.5    41    0.5    14      2.9    885.5     0.00       2    999.0
 211    5:00   58.9    42    0.4     1      3.2    885.5     0.00       5    999.0
 211    5:10   59.3    41    0.1   209      3.0    885.5     0.00      10    999.0
 211    5:20   58.6    40    2.1   203      3.7    885.7     0.00      23    999.0
 211    5:30   59.5    40    0.6   166      2.5    885.7     0.00      41    999.0
 211    5:40   60.8    39    1.9    99      3.3    885.8     0.00      60    999.0
 211    5:50   62.6    37    0.1   129      1.6    885.8     0.00     103    999.0
 211    6:00   64.2    34    1.2   186      4.3    885.8     0.00     127    999.0
 211    6:10   65.8    34    3.4   165      5.0    885.9     0.00     145    999.0
 211    6:20   68.1    33    3.5   160      5.9    886.0     0.00     193    999.0
 211    6:30   70.3    31    2.2   154      4.5    886.0     0.00     223    999.0
 211    6:40   72.7    29    0.0     0      0.0    886.2     0.00     260    999.0
 211    6:50   74.0    28    0.0     0      0.0    886.1     0.00     300    999.0
 211    7:00   74.6    28    0.4   313      2.6    886.1     0.00     329    999.0
 211    7:10   74.2    28    1.1   299      3.1    886.1     0.00     365    999.0
 211    7:20   75.0    28    0.1   290      1.8    886.0     0.00     404    999.0
 211    7:30   76.6    26    0.0   354      0.4    886.1     0.00     438    999.0
 211    7:40   78.3    25    0.2   356      2.0    886.0     0.00     472    999.0
 211    7:50   79.0    24    0.3   301      2.0    886.0     0.00     505    999.0
 211    8:00   78.8    24    1.3   308      4.1    886.0     0.00     538    999.0
 211    8:10   78.8    24    3.0   314      5.3    886.0     0.00     570    999.0
 211    8:20   80.2    23    2.4   314      6.1    885.9     0.00     597    999.0
 211    8:30   81.4    22    2.9   333      6.5    885.8     0.00     639    999.0
 211    8:40   82.4    22    2.6   325      5.1    885.8     0.00     684    999.0
 211    8:50   82.5    21    2.9   272      6.1    885.7     0.00     609    999.0
 211    9:00   82.8    21    3.4   296      6.5    885.8     0.00     623    999.0
 211    9:10   84.0    20    3.1   285      7.4    885.8     0.00     739    999.0
 211    9:20   84.1    20    1.4   312      5.9    885.7     0.00     543    999.0
 211    9:30   84.9    19    2.6   327      7.2    885.7     0.00     818    999.0
 211    9:40   85.6    19    2.5   313      7.5    885.7     0.00     861    999.0
 211    9:50   86.4    18    2.3   253      5.0    885.6     0.00     878    999.0
 211   10:00   87.5    17    2.4     8      6.1    885.5     0.00     870    999.0
 211   10:10   86.6    17    4.0   314      7.2    885.5     0.00     555    999.0
 211   10:20   86.4    17    3.7   309      7.2    885.4     0.00     687    999.0
 211   10:30   87.5    16    2.5   256      5.8    885.4     0.00     716    999.0
 211   10:40   87.3    16    3.1    29      6.2    885.4     0.00     703    999.0
 211   10:50   89.8    15    1.4   126      5.6    885.3     0.00     917    999.0
 211   11:00   89.1    15    4.7   292     10.7    885.2     0.00     783    999.0
 211   11:10   88.8    15    2.4   208      7.2    885.1     0.00     624    999.0
 211   11:20   90.8    14    3.2   166      6.4    885.0     0.00     904    999.0
 211   11:30   91.7    14    2.5   143      6.0    884.9     0.00     774    999.0
 211   11:40   91.5    14    2.5   112      7.5    884.8     0.00     915    999.0
 211   11:50   90.4    14    5.0   252      7.8    884.7     0.00     776    999.0
 211   12:00   89.8    14    3.7   290     10.9    884.6     0.00     636    999.0
 211   12:10   91.7    13    2.7   192      7.6    884.5     0.00     686    999.0
 211   12:20   91.8    13    2.4    47      6.9    884.4     0.00     672    999.0
 211   12:30   92.0    13    1.3   345      4.1    884.3     0.00     667    999.0
 211   12:40   92.3    12    3.7    31      7.2    884.3     0.00     643    999.0
 211   12:50   92.0    12    2.8    17      7.4    884.1     0.00     615    999.0
 211   13:00   91.5    13    3.6    84      7.4    884.0     0.00     649    999.0
 211   13:10   92.6    12    3.5   245      7.4    883.9     0.00     658    999.0
 211   13:20   91.8    12    3.2     3      6.7    883.8     0.00     640    999.0
 211   13:30   92.1    12    4.0   359      7.2    883.7     0.00     555    999.0
 211   13:40   92.0    12    3.2    44      6.1    883.6     0.00     613    999.0
 211   13:50   92.9    11    3.6   331      7.4    883.5     0.00     594    999.0
 211   14:00   93.5    11    2.4   222      7.7    883.5     0.00     628    999.0
 211   14:10   94.3    10    5.8   176     11.5    883.3     0.00     601    999.0
 211   14:20   94.1    10    2.8   177      8.8    883.2     0.00     468    999.0
 211   14:30   93.1    11    4.5   290      9.3    883.2     0.00     437    999.0
 211   14:40   92.4    11    2.6   336      6.4    883.1     0.00     457    999.0
 211   14:50   93.1    11    3.2   347      8.2    883.0     0.00     487    999.0
 211   15:00   93.2    11    2.7     3      6.9    883.1     0.00     494    999.0
 211   15:10   93.1    12    4.0   156      7.3    883.1     0.00     449    999.0
 211   15:20   94.0    11    4.4   206      9.6    883.0     0.00     462    999.0
 211   15:30   93.4    11    6.4   339     10.4    883.0     0.00     388    999.0
 211   15:40   93.1    12    6.1    11     10.8    883.0     0.00     309    999.0
 211   15:50   92.4    12    3.1    43      6.4    883.0     0.00     268    999.0
 211   16:00   92.4    12    6.1   349     13.3    883.0     0.00     255    999.0
 211   16:10   92.0    12   10.9   338     17.8    883.1     0.00     215    999.0
 211   16:20   88.8    16   21.1   313     31.0    883.4     0.00     167    999.0
 211   16:30   86.1    20   18.2   310     25.9    883.4     0.00     144    999.0
 211   16:40   86.0    19   17.4   313     23.8    883.5     0.00     102    999.0
 211   16:50   84.4    22   14.9   302     19.6    883.6     0.00      66    999.0
 211   17:00   82.9    23   13.4   288     18.5    883.8     0.00      52    999.0
 211   17:10   82.0    24   13.8   275     19.1    883.9     0.00      51    999.0
 211   17:20   82.0    23    8.7   293     17.1    883.9     0.00      47    999.0
 211   17:30   82.3    23    6.3   318      8.8    883.9     0.00      45    999.0
 211   17:40   83.3    20    5.4   348      9.5    883.7     0.00      47    999.0
 211   17:50   84.1    18    1.7   272      3.9    883.7     0.00      51    999.0
 211   18:00   84.4    18    0.8   332      4.4    883.9     0.00      33    999.0
 211   18:10   83.7    20    8.5   159     14.0    884.2     0.00      17    999.0
 211   18:20   81.8    26   13.4   151     18.9    884.4     0.00      11    999.0
 211   18:30   77.4    38   10.1   162     14.2    884.8     0.00      10    999.0
 211   18:40   77.3    35    8.7   181     12.9    884.8     0.00      10    999.0
 211   18:50   77.7    35    4.9   171      8.6    884.9     0.00       8    999.0
 211   19:00   77.2    36    4.2   168      9.6    885.0     0.00       5    999.0
 211   19:10   77.4    36    6.3   143      9.2    885.0     0.00       3    999.0
 211   19:20   78.0    32    7.0   140      9.6    884.9     0.00       1    999.0
 211   19:30   77.7    33    5.7   161      8.3    884.9     0.00       0    999.0
 211   19:40   77.4    33    5.3   179      7.2    884.9     0.00       0    999.0
 211   19:50   77.1    34    1.6   166      3.7    885.0     0.00       0    999.0
 211   20:00   76.8    35    0.9   144      2.9    885.1     0.00       0    999.0
 211   20:10   76.9    34    3.0    61      6.4    885.3     0.00       0    999.0
 211   20:20   77.1    32    4.1    52      6.7    885.5     0.00       0    999.0
 211   20:30   78.3    29    0.5    22      3.1    885.6     0.00       0    999.0
 211   20:40   79.3    27    3.6   359      6.6    885.6     0.00       0    999.0
 211   20:50   79.3    29    7.9   317     14.0    885.4     0.00       0    999.0
 211   21:00   78.4    31    8.6   316     11.8    885.3     0.00       0    999.0
 211   21:10   77.8    31    7.4   301     11.2    885.2     0.00       0    999.0
 211   21:20   77.2    33    5.4   310      8.4    885.3     0.00       0    999.0
 211   21:30   76.5    35    2.1   207      5.2    885.2     0.00       0    999.0
 211   21:40   75.7    34    2.1   165      6.1    885.1     0.00       0    999.0
 211   21:50   75.8    34    4.5    86      6.3    885.0     0.00       0    999.0
 211   22:00   76.2    32    5.2   111      7.4    885.2     0.00       0    999.0
 211   22:10   76.4    31    3.9    92      6.6    885.2     0.00       0    999.0
 211   22:20   76.0    32    3.0    90      4.4    885.3     0.00       0    999.0
 211   22:30   76.4    30    2.2    88      4.6    885.2     0.00       0    999.0
 211   22:40   76.0    31    0.0     0      0.0    885.2     0.00       0    999.0
 211   22:50   74.9    34    2.2   181      4.5    885.2     0.00       0    999.0
 211   23:00   74.7    33    3.9   199      5.3    885.1     0.00       0    999.0
 211   23:10   74.0    36    3.6   163      5.4    885.0     0.00       0    999.0
 211   23:20   74.0    35    2.4   125      4.5    885.0     0.00       0    999.0
 211   23:30   73.7    35    1.5   352      3.9    885.0     0.00       0    999.0
 211   23:40   74.1    33    0.0     0      0.0    885.2     0.00       0    999.0
 211   23:50   73.9    34    1.7   261      4.1    885.2     0.00       0    999.0
 212    0:00   74.5    32    0.0   223      0.7    885.1     0.00       0    999.0
 212    0:10   74.2    32    3.2    88      5.0    885.2     0.00       0    999.0
 212    0:20   74.1    32    4.7    84      6.4    885.1     0.00       0    999.0

Return to Blowing Sand Mountains graphs page.


Western Regional Climate Center,wrcc@dri.edu